Time;durP1;ratioP1;P1;durP2;ratioP2;P2;SDS_P1;SDS_P2;PMS_P1;PMS_P2;Temp;Humidity;BMP_temperature;BMP_pressure;BME280_temperature;BME280_humidity;BME280_pressure;Samples;Min_cycle;Max_cycle;Signal;HPM_P1;HPM_P2
2024/04/19 00:00:33;;;;;;;1.47;0.70;;;23.60;78.90;;;;;;5421527;26;21150;-23
2024/04/19 00:03:03;;;;;;;1.77;0.70;;;23.30;78.40;;;;;;5432811;26;20853;-23
2024/04/19 00:05:30;;;;;;;1.00;0.70;;;23.40;78.50;;;;;;5423886;26;20464;-24
2024/04/19 00:08:04;;;;;;;1.00;0.70;;;23.60;78.90;;;;;;5439082;26;21235;-23
2024/04/19 00:10:30;;;;;;;1.00;0.70;;;23.30;78.40;;;;;;5430780;26;20463;-23
2024/04/19 00:13:00;;;;;;;1.10;0.60;;;22.70;78.10;;;;;;5432077;26;21023;-26
2024/04/19 00:15:31;;;;;;;0.90;0.60;;;22.70;78.20;;;;;;5440781;26;20510;-23
2024/04/19 00:18:00;;;;;;;0.90;0.60;;;23.20;80.90;;;;;;5440155;26;20513;-22
2024/04/19 00:20:26;;;;;;;1.20;0.80;;;23.20;81.20;;;;;;5435995;26;20846;-22
2024/04/19 00:22:54;;;;;;;1.00;0.70;;;23.10;81.20;;;;;;5434060;26;21715;-22
2024/04/19 00:25:22;;;;;;;0.90;0.70;;;22.60;80.40;;;;;;5434028;26;20235;-23
2024/04/19 00:27:50;;;;;;;1.20;0.70;;;22.60;80.60;;;;;;5437566;26;20478;-24
2024/04/19 00:30:20;;;;;;;1.10;0.80;;;23.00;81.00;;;;;;5418891;26;20465;-23
2024/04/19 00:32:51;;;;;;;0.93;0.60;;;23.10;80.70;;;;;;5440903;26;20557;-24
2024/04/19 00:35:19;;;;;;;1.07;0.67;;;22.90;80.80;;;;;;5424309;26;21990;-23
2024/04/19 00:37:49;;;;;;;1.07;0.60;;;23.10;81.00;;;;;;5422279;26;20471;-22
2024/04/19 00:40:17;;;;;;;0.90;0.60;;;22.80;80.60;;;;;;5429371;26;21268;-23
2024/04/19 00:42:46;;;;;;;1.20;0.80;;;22.90;81.10;;;;;;5418392;26;20515;-24
2024/04/19 00:45:33;;;;;;;0.90;0.60;;;22.80;80.90;;;;;;5419117;26;20546;-24
2024/04/19 00:48:16;;;;;;;0.90;0.60;;;22.40;80.70;;;;;;5410979;26;21545;-24
2024/04/19 00:50:56;;;;;;;1.30;0.70;;;22.30;82.60;;;;;;5433655;26;20475;-21
2024/04/19 00:53:26;;;;;;;1.00;0.60;;;22.80;83.40;;;;;;5429044;26;20902;-25
2024/04/19 00:56:03;;;;;;;0.90;0.63;;;22.90;83.70;;;;;;5442106;26;20479;-24
2024/04/19 00:58:29;;;;;;;1.00;0.70;;;22.60;83.90;;;;;;5437887;26;20471;-22
2024/04/19 01:01:06;;;;;;;2.15;0.60;;;23.20;84.20;;;;;;5437818;26;21034;-23
2024/04/19 01:03:42;;;;;;;0.90;0.60;;;22.50;83.20;;;;;;5436574;26;20329;-25
2024/04/19 01:06:22;;;;;;;1.00;0.70;;;22.40;83.00;;;;;;5432242;26;21018;-22
2024/04/19 01:08:52;;;;;;;0.80;0.60;;;22.70;83.10;;;;;;5421029;26;20444;-24
2024/04/19 01:11:21;;;;;;;1.00;0.60;;;22.50;83.30;;;;;;5429573;26;20479;-23
2024/04/19 01:13:55;;;;;;;1.02;0.73;;;22.40;83.30;;;;;;5431649;26;20481;-23
2024/04/19 01:16:24;;;;;;;1.00;0.60;;;22.40;83.30;;;;;;5428153;26;20658;-22
2024/04/19 01:18:57;;;;;;;1.10;0.60;;;23.00;84.10;;;;;;5424529;26;20227;-22
2024/04/19 01:21:27;;;;;;;0.90;0.60;;;22.40;83.00;;;;;;5441705;26;20467;-22
2024/04/19 01:24:02;;;;;;;1.10;0.70;;;22.20;80.10;;;;;;5436060;26;20292;-21
2024/04/19 01:26:31;;;;;;;1.00;0.80;;;22.70;81.00;;;;;;5428207;26;20475;-24
2024/04/19 01:29:00;;;;;;;1.57;0.80;;;21.90;80.20;;;;;;5433911;26;20871;-22
2024/04/19 01:31:26;;;;;;;1.83;1.00;;;22.30;80.60;;;;;;5410522;26;20558;-24
2024/04/19 01:33:54;;;;;;;1.10;0.70;;;22.00;80.30;;;;;;5436249;26;20246;-24
2024/04/19 01:36:22;;;;;;;1.10;0.70;;;21.90;80.20;;;;;;5432235;26;20230;-22
2024/04/19 01:38:53;;;;;;;1.10;0.60;;;22.00;80.30;;;;;;5432089;26;20238;-24
2024/04/19 01:41:36;;;;;;;1.00;0.60;;;22.40;80.80;;;;;;5426247;26;20495;-22
2024/04/19 01:44:02;;;;;;;0.93;0.70;;;22.00;80.40;;;;;;5435891;26;21010;-21
2024/04/19 01:46:34;;;;;;;0.83;0.60;;;22.70;81.50;;;;;;5437459;26;20261;-22
2024/04/19 01:49:07;;;;;;;1.00;0.70;;;22.00;80.80;;;;;;5426818;26;20524;-23
2024/04/19 01:51:35;;;;;;;1.25;0.70;;;21.90;80.70;;;;;;5439784;26;21155;-22
2024/04/19 01:54:15;;;;;;;1.00;0.80;;;22.70;81.90;;;;;;5433843;26;20235;-22
2024/04/19 01:56:44;;;;;;;0.90;0.60;;;22.00;81.80;;;;;;5426686;26;20767;-23
2024/04/19 01:59:19;;;;;;;1.10;0.70;;;21.90;82.20;;;;;;5427212;26;20277;-23
2024/04/19 02:01:45;;;;;;;0.80;0.60;;;22.10;82.30;;;;;;5432001;26;20230;-22
2024/04/19 02:04:13;;;;;;;1.57;0.80;;;22.20;82.50;;;;;;5426161;26;20919;-22
2024/04/19 02:06:44;;;;;;;0.90;0.60;;;21.80;82.00;;;;;;5436367;26;20558;-24
2024/04/19 02:09:18;;;;;;;0.90;0.60;;;22.00;82.30;;;;;;5444229;26;20964;-24
2024/04/19 02:11:55;;;;;;;1.48;0.60;;;21.90;82.20;;;;;;5440203;26;20225;-25
2024/04/19 02:14:40;;;;;;;1.10;0.70;;;22.20;82.80;;;;;;5445453;26;20242;-23
2024/04/19 02:17:11;;;;;;;0.90;0.70;;;21.60;81.80;;;;;;5438590;26;20250;-23
2024/04/19 02:19:43;;;;;;;1.00;0.60;;;22.00;82.60;;;;;;5442570;26;20805;-23
2024/04/19 02:22:17;;;;;;;1.10;0.70;;;21.60;82.50;;;;;;5440875;26;20246;-27
2024/04/19 02:24:57;;;;;;;0.90;0.60;;;21.40;82.50;;;;;;5438000;26;20290;-23
2024/04/19 02:33:05;;;;;;;1.30;0.90;;;21.60;83.20;;;;;;5430995;26;20315;-23
2024/04/19 02:35:40;;;;;;;1.02;0.70;;;21.50;83.00;;;;;;5440577;26;20269;-23
2024/04/19 02:38:10;;;;;;;0.90;0.70;;;21.80;83.20;;;;;;5430707;26;20733;-24
2024/04/19 02:40:44;;;;;;;1.10;0.70;;;22.50;84.10;;;;;;5434749;26;20238;-23
2024/04/19 02:43:15;;;;;;;0.93;0.70;;;21.90;83.60;;;;;;5441042;26;20234;-25
2024/04/19 02:45:51;;;;;;;1.00;0.60;;;21.50;83.40;;;;;;5441899;26;20223;-25
2024/04/19 02:48:22;;;;;;;0.90;0.60;;;21.60;83.30;;;;;;5431548;26;20703;-21
2024/04/19 02:50:50;;;;;;;1.42;0.80;;;21.80;84.10;;;;;;5423696;26;20230;-24
2024/04/19 02:53:20;;;;;;;1.50;0.70;;;21.70;92.80;;;;;;5420559;26;21046;-21
2024/04/19 02:55:57;;;;;;;0.90;0.60;;;21.40;94.60;;;;;;5443169;26;22153;-22
2024/04/19 02:58:31;;;;;;;0.90;0.60;;;22.10;95.10;;;;;;5422019;26;20987;-23
2024/04/19 03:01:00;;;;;;;1.00;0.60;;;21.80;95.50;;;;;;5430479;26;20979;-21
2024/04/19 03:03:30;;;;;;;0.90;0.60;;;21.80;96.10;;;;;;5438770;26;20938;-23
2024/04/19 03:06:01;;;;;;;1.00;0.70;;;21.60;96.10;;;;;;5444442;26;20568;-24
2024/04/19 03:08:33;;;;;;;1.00;0.60;;;21.70;96.10;;;;;;5438204;26;20330;-21
2024/04/19 03:11:07;;;;;;;0.90;0.65;;;21.60;96.30;;;;;;5416991;26;20354;-22
2024/04/19 03:13:45;;;;;;;1.08;0.60;;;21.30;96.20;;;;;;5437620;26;22462;-22
2024/04/19 03:16:15;;;;;;;0.95;0.60;;;21.70;95.30;;;;;;5438289;26;20334;-25
2024/04/19 03:18:48;;;;;;;0.90;0.60;;;22.00;92.50;;;;;;5432111;26;20319;-23
2024/04/19 03:21:31;;;;;;;1.20;0.80;;;21.80;98.80;;;;;;5431242;26;20307;-24
2024/04/19 03:24:05;;;;;;;0.90;0.60;;;21.60;98.00;;;;;;5430620;26;20265;-24
2024/04/19 03:26:57;;;;;;;1.27;0.75;;;22.10;96.90;;;;;;5437182;26;20945;-22
2024/04/19 03:29:32;;;;;;;0.90;0.60;;;21.50;95.50;;;;;;5419075;26;20242;-23
2024/04/19 03:32:06;;;;;;;1.13;0.80;;;21.90;95.50;;;;;;5430080;26;20365;-22
2024/04/19 03:34:35;;;;;;;0.90;0.60;;;21.20;95.50;;;;;;5433213;26;20758;-22
2024/04/19 03:37:12;;;;;;;1.00;0.70;;;21.70;95.30;;;;;;5429554;26;20885;-23
2024/04/19 03:39:40;;;;;;;0.90;0.70;;;21.20;94.70;;;;;;5440353;26;20231;-23
2024/04/19 03:42:20;;;;;;;1.27;0.70;;;21.50;94.30;;;;;;5428666;26;20729;-25
2024/04/19 03:47:43;;;;;;;1.00;0.73;;;20.90;93.60;;;;;;5436242;26;20334;-22
2024/04/19 03:50:19;;;;;;;0.90;0.68;;;21.30;97.70;;;;;;5431400;26;20366;-23
2024/04/19 03:52:53;;;;;;;0.90;0.70;;;21.70;96.50;;;;;;5431282;26;20238;-22
2024/04/19 03:55:23;;;;;;;0.90;0.70;;;21.20;96.10;;;;;;5435038;26;21013;-22
2024/04/19 03:58:00;;;;;;;0.90;0.60;;;21.80;96.50;;;;;;5427593;26;20238;-24
2024/04/19 04:00:29;;;;;;;2.00;1.00;;;21.00;96.20;;;;;;5433742;26;20834;-26
2024/04/19 04:02:58;;;;;;;1.10;0.70;;;21.50;96.30;;;;;;5432632;26;20230;-23
2024/04/19 04:05:32;;;;;;;0.90;0.70;;;21.40;96.30;;;;;;5447144;26;20227;-22
2024/04/19 04:08:05;;;;;;;1.17;0.70;;;21.10;96.40;;;;;;5435784;26;20326;-21
2024/04/19 04:10:35;;;;;;;1.17;0.70;;;21.50;96.30;;;;;;5436092;26;20230;-23
2024/04/19 04:13:04;;;;;;;0.90;0.60;;;21.20;95.60;;;;;;5438646;26;20238;-21
2024/04/19 04:15:39;;;;;;;1.40;0.70;;;21.20;95.50;;;;;;5438475;26;22448;-25
2024/04/19 04:18:08;;;;;;;1.13;0.70;;;21.90;98.20;;;;;;5437703;26;20805;-23
2024/04/19 04:20:39;;;;;;;1.40;0.60;;;21.00;97.90;;;;;;5427201;26;20728;-21
2024/04/19 04:23:08;;;;;;;0.90;0.65;;;20.80;97.80;;;;;;5438723;26;20239;-24
2024/04/19 04:25:37;;;;;;;0.85;0.60;;;21.40;97.80;;;;;;5429659;26;20268;-23
2024/04/19 04:28:06;;;;;;;1.00;0.70;;;21.10;97.80;;;;;;5427352;26;20285;-22
2024/04/19 04:30:37;;;;;;;1.48;0.70;;;21.00;97.90;;;;;;5435781;26;20246;-23
2024/04/19 04:33:06;;;;;;;0.90;0.60;;;20.90;98.30;;;;;;5426562;26;20847;-22
2024/04/19 04:35:34;;;;;;;0.80;0.60;;;21.10;98.70;;;;;;5432944;26;20235;-22
2024/04/19 04:38:13;;;;;;;1.15;0.77;;;21.60;98.80;;;;;;5422389;26;20246;-21
2024/04/19 04:40:52;;;;;;;0.90;0.60;;;20.90;98.80;;;;;;5434436;26;20226;-24
2024/04/19 04:43:29;;;;;;;0.90;0.60;;;21.50;99.50;;;;;;5431070;26;20378;-22
2024/04/19 04:46:01;;;;;;;0.90;0.70;;;21.50;99.80;;;;;;5427882;26;20545;-23
2024/04/19 04:48:31;;;;;;;0.90;0.63;;;20.90;99.20;;;;;;5436674;26;20569;-26
2024/04/19 04:51:04;;;;;;;1.00;0.80;;;20.90;99.40;;;;;;5421546;26;20902;-24
2024/04/19 04:53:41;;;;;;;0.90;0.60;;;20.90;98.60;;;;;;5441928;26;20285;-24
2024/04/19 04:56:16;;;;;;;0.80;0.57;;;20.70;98.50;;;;;;5432496;26;20833;-23
2024/04/19 04:58:46;;;;;;;1.20;0.70;;;21.20;98.00;;;;;;5429397;26;20241;-23
2024/04/19 05:01:20;;;;;;;1.60;0.75;;;20.90;98.10;;;;;;5427795;26;20281;-22
2024/04/19 05:03:49;;;;;;;1.00;0.73;;;20.90;98.40;;;;;;5419120;26;20348;-24
2024/04/19 05:06:20;;;;;;;1.00;0.60;;;21.00;98.60;;;;;;5438104;26;20281;-23
2024/04/19 05:08:49;;;;;;;1.00;0.70;;;21.20;98.70;;;;;;5429458;26;20230;-21
2024/04/19 05:11:19;;;;;;;1.00;0.70;;;21.30;98.90;;;;;;5419221;26;20247;-23
2024/04/19 05:13:49;;;;;;;1.00;0.60;;;21.20;99.50;;;;;;5443252;26;21687;-24
2024/04/19 05:16:23;;;;;;;0.90;0.60;;;21.70;99.80;;;;;;5438817;26;20557;-23
2024/04/19 05:18:58;;;;;;;1.23;0.90;;;21.00;98.60;;;;;;5429429;26;20897;-23
2024/04/19 05:21:29;;;;;;;1.20;0.60;;;20.90;98.20;;;;;;5436037;26;20233;-21
2024/04/19 05:24:01;;;;;;;0.90;0.60;;;21.00;98.70;;;;;;5433622;26;20846;-25
2024/04/19 05:26:37;;;;;;;0.88;0.63;;;21.30;98.60;;;;;;5425395;26;20282;-22
2024/04/19 05:29:05;;;;;;;0.90;0.70;;;21.30;98.90;;;;;;5436046;26;20792;-23
2024/04/19 05:31:38;;;;;;;0.90;0.60;;;21.50;99.10;;;;;;5429532;26;20254;-25
2024/04/19 05:34:11;;;;;;;0.90;0.60;;;21.20;98.60;;;;;;5429147;26;20330;-21
2024/04/19 05:36:40;;;;;;;1.58;0.70;;;20.70;98.90;;;;;;5438356;26;21391;-24
2024/04/19 05:39:12;;;;;;;1.10;0.70;;;21.00;98.80;;;;;;5432677;26;20242;-22
2024/04/19 05:41:41;;;;;;;1.10;0.70;;;21.40;97.10;;;;;;5423263;26;20477;-23
2024/04/19 05:44:19;;;;;;;;;;;;;;;;;;;;;
2024/04/19 05:46:54;;;;;;;1.42;0.70;;;21.10;95.50;;;;;;5435525;26;20782;-24
2024/04/19 05:49:27;;;;;;;0.90;0.60;;;21.10;95.20;;;;;;5435634;26;20414;-22
2024/04/19 05:51:56;;;;;;;1.13;0.70;;;21.30;95.50;;;;;;5434086;26;20823;-22
2024/04/19 05:54:34;;;;;;;1.20;0.70;;;20.60;94.90;;;;;;5433626;26;20268;-23
2024/04/19 05:57:02;;;;;;;0.90;0.60;;;21.50;95.30;;;;;;5423888;26;21016;-22
2024/04/19 05:59:30;;;;;;;0.90;0.70;;;20.70;95.30;;;;;;5430129;26;20339;-26
2024/04/19 06:02:07;;;;;;;0.90;0.60;;;20.90;98.40;;;;;;5436271;26;20606;-22
2024/04/19 06:04:35;;;;;;;1.00;0.70;;;20.60;93.40;;;;;;5429003;26;20257;-23
2024/04/19 06:07:09;;;;;;;0.90;0.68;;;21.20;93.00;;;;;;5424414;26;20268;-24
2024/04/19 06:09:41;;;;;;;0.90;0.60;;;21.20;92.80;;;;;;5440823;26;20242;-25
2024/04/19 06:12:12;;;;;;;0.90;0.60;;;21.50;93.00;;;;;;5428429;26;20338;-22
2024/04/19 06:14:43;;;;;;;1.00;0.80;;;21.10;90.10;;;;;;5435090;26;20326;-25
2024/04/19 06:17:18;;;;;;;1.10;0.70;;;20.50;90.50;;;;;;5436462;26;20234;-23
2024/04/19 06:20:01;;;;;;;1.00;0.70;;;20.70;91.30;;;;;;5418104;26;20326;-24
2024/04/19 06:22:31;;;;;;;0.90;0.60;;;21.40;93.60;;;;;;5424893;26;20254;-22
2024/04/19 06:25:12;;;;;;;0.90;0.60;;;21.00;94.90;;;;;;5432283;26;20238;-24
2024/04/19 06:27:57;;;;;;;1.23;0.80;;;20.50;93.80;;;;;;5447642;26;20234;-23
2024/04/19 06:30:29;;;;;;;0.90;0.70;;;21.00;93.70;;;;;;5428814;26;20242;-23
2024/04/19 06:33:04;;;;;;;1.33;0.60;;;20.80;93.50;;;;;;5433415;26;20374;-25
2024/04/19 06:35:32;;;;;;;0.90;0.60;;;20.70;93.20;;;;;;5423525;26;20330;-24
2024/04/19 06:38:02;;;;;;;1.23;0.70;;;21.20;93.30;;;;;;5428273;26;20238;-24
2024/04/19 06:40:31;;;;;;;0.80;0.60;;;20.70;93.00;;;;;;5431363;26;20235;-29
2024/04/19 06:42:59;;;;;;;1.20;0.65;;;21.00;93.00;;;;;;5439497;26;20378;-24
2024/04/19 06:45:29;;;;;;;0.90;0.77;;;21.00;93.00;;;;;;5429746;26;20250;-22
2024/04/19 06:48:05;;;;;;;1.25;0.70;;;21.00;92.90;;;;;;5442932;26;20746;-27
2024/04/19 06:50:36;;;;;;;1.10;0.70;;;21.50;93.10;;;;;;5434276;26;20720;-24
2024/04/19 06:53:09;;;;;;;0.90;0.60;;;21.00;92.40;;;;;;5420462;26;21140;-23
2024/04/19 06:55:40;;;;;;;1.30;0.80;;;21.00;92.30;;;;;;5421241;26;21812;-25
2024/04/19 06:58:10;;;;;;;0.90;0.60;;;21.10;92.20;;;;;;5429763;26;22364;-25
2024/04/19 07:00:49;;;;;;;0.90;0.60;;;21.70;92.60;;;;;;5441265;26;20697;-27
2024/04/19 07:03:28;;;;;;;1.00;0.70;;;21.20;92.60;;;;;;5435619;26;22040;-22
2024/04/19 07:05:57;;;;;;;0.90;0.70;;;21.60;92.40;;;;;;5422639;26;20238;-25
2024/04/19 07:08:30;;;;;;;0.90;0.70;;;21.70;92.40;;;;;;5425567;26;20256;-22
2024/04/19 07:11:02;;;;;;;0.90;0.60;;;21.40;92.00;;;;;;5433767;26;20330;-25
2024/04/19 07:13:34;;;;;;;0.97;0.70;;;21.60;92.10;;;;;;5427802;26;20345;-24
2024/04/19 07:16:10;;;;;;;0.90;0.60;;;21.50;91.90;;;;;;5434135;26;20468;-21
2024/04/19 07:18:41;;;;;;;0.90;0.60;;;22.10;91.90;;;;;;5434850;26;20832;-21
2024/04/19 07:21:10;;;;;;;0.90;0.60;;;22.10;91.90;;;;;;5419460;26;20540;-26
2024/04/19 07:23:55;;;;;;;0.97;0.70;;;21.50;91.70;;;;;;5429432;26;20528;-26
2024/04/19 07:26:37;;;;;;;0.90;0.70;;;21.80;91.80;;;;;;5423002;26;21864;-25
2024/04/19 07:29:10;;;;;;;0.90;0.60;;;22.10;91.70;;;;;;5438594;26;20477;-22
2024/04/19 07:31:40;;;;;;;0.85;0.60;;;22.10;91.70;;;;;;5424061;26;20383;-24
2024/04/19 07:34:11;;;;;;;0.90;0.50;;;21.90;91.50;;;;;;5426270;26;20232;-24
2024/04/19 07:36:45;;;;;;;1.10;0.70;;;21.90;91.50;;;;;;5435855;26;20471;-25
2024/04/19 07:39:20;;;;;;;3.00;1.20;;;21.90;91.40;;;;;;5435584;26;20456;-28
2024/04/19 07:41:51;;;;;;;0.90;0.60;;;22.00;91.50;;;;;;5426686;26;20467;-27
2024/04/19 07:44:21;;;;;;;13.23;1.07;;;22.00;91.60;;;;;;5430400;26;22956;-25
2024/04/19 07:46:51;;;;;;;1.73;0.60;;;22.50;92.10;;;;;;5427807;26;20523;-22
2024/04/19 07:49:27;;;;;;;0.90;0.60;;;22.70;92.10;;;;;;5428750;26;21480;-23
2024/04/19 07:51:57;;;;;;;1.00;0.70;;;22.60;92.00;;;;;;5435636;26;20705;-22
2024/04/19 07:54:27;;;;;;;0.90;0.70;;;22.30;91.70;;;;;;5421544;26;20472;-25
2024/04/19 07:56:58;;;;;;;0.90;0.60;;;22.20;91.60;;;;;;5429600;26;21089;-24
2024/04/19 07:59:28;;;;;;;0.90;0.60;;;23.00;91.90;;;;;;5435462;26;20531;-25
2024/04/19 08:02:02;;;;;;;1.13;0.70;;;22.70;91.70;;;;;;5433796;26;20479;-23
2024/04/19 08:04:41;;;;;;;0.90;0.60;;;22.60;91.40;;;;;;5437715;26;21172;-24
2024/04/19 08:07:12;;;;;;;1.33;0.70;;;22.40;91.00;;;;;;5432012;26;20452;-26
2024/04/19 08:09:41;;;;;;;1.30;0.70;;;22.30;90.90;;;;;;5420346;26;20629;-23
2024/04/19 08:12:16;;;;;;;0.90;0.60;;;22.40;90.70;;;;;;5431959;26;20472;-26
2024/04/19 08:14:53;;;;;;;0.90;0.60;;;23.50;90.90;;;;;;5431404;26;20467;-28
2024/04/19 08:17:41;;;;;;;1.20;0.70;;;22.60;90.50;;;;;;5445047;26;21571;-24
2024/04/19 08:20:17;;;;;;;1.03;0.70;;;22.50;90.20;;;;;;5442222;26;20492;-23
2024/04/19 08:22:48;;;;;;;0.93;0.67;;;22.90;90.30;;;;;;5439222;26;21133;-23
2024/04/19 08:25:20;;;;;;;1.00;0.70;;;22.60;90.10;;;;;;5439026;26;20471;-25
2024/04/19 08:27:58;;;;;;;1.10;0.70;;;23.00;90.10;;;;;;5425171;26;20512;-22
2024/04/19 08:30:35;;;;;;;0.80;0.60;;;22.70;90.00;;;;;;5426154;26;21344;-23
2024/04/19 08:33:09;;;;;;;1.00;0.60;;;23.00;89.70;;;;;;5434769;26;20478;-25
2024/04/19 08:35:57;;;;;;;1.10;0.60;;;23.00;89.10;;;;;;5429710;26;20471;-22
2024/04/19 08:38:28;;;;;;;0.90;0.70;;;22.90;88.90;;;;;;5428675;26;20869;-22
2024/04/19 08:41:04;;;;;;;0.83;0.60;;;23.20;89.00;;;;;;5439229;26;21129;-24
2024/04/19 08:43:35;;;;;;;0.90;0.70;;;22.70;88.30;;;;;;5426413;26;20526;-22
2024/04/19 08:46:09;;;;;;;0.90;0.60;;;23.00;88.40;;;;;;5436303;26;20460;-25
2024/04/19 08:48:49;;;;;;;0.80;0.53;;;22.90;88.10;;;;;;5431119;26;20446;-22
2024/04/19 08:51:29;;;;;;;0.90;0.70;;;23.40;89.00;;;;;;5426388;26;20568;-24
2024/04/19 08:54:06;;;;;;;1.00;0.60;;;22.80;87.30;;;;;;5418076;26;20530;-22
2024/04/19 08:56:36;;;;;;;0.80;0.57;;;23.20;87.60;;;;;;5433447;26;20515;-25
2024/04/19 08:59:08;;;;;;;1.00;0.67;;;23.10;87.50;;;;;;5424675;26;20603;-26
2024/04/19 09:01:38;;;;;;;0.90;0.60;;;23.10;87.00;;;;;;5436493;26;21204;-23
2024/04/19 09:04:10;;;;;;;0.90;0.67;;;23.60;87.10;;;;;;5427075;26;21066;-25
2024/04/19 09:06:49;;;;;;;0.90;0.60;;;23.50;86.70;;;;;;5421140;26;20511;-26
2024/04/19 09:09:18;;;;;;;0.90;0.60;;;23.20;85.40;;;;;;5415880;26;20463;-29
2024/04/19 09:11:58;;;;;;;1.50;0.70;;;23.20;85.60;;;;;;5432490;26;20467;-25
2024/04/19 09:14:30;;;;;;;0.90;0.70;;;23.30;85.70;;;;;;5402709;26;20467;-27
2024/04/19 09:17:02;;;;;;;1.00;0.70;;;23.60;85.70;;;;;;5419761;26;20483;-26
2024/04/19 09:19:31;;;;;;;0.93;0.60;;;23.60;85.70;;;;;;5430356;26;20523;-23
2024/04/19 09:22:05;;;;;;;1.10;0.70;;;23.10;85.40;;;;;;5425561;26;20480;-33
2024/04/19 09:24:34;;;;;;;2.77;0.60;;;23.10;85.60;;;;;;5401863;26;20574;-28
2024/04/19 09:27:07;;;;;;;1.20;0.70;;;23.10;85.30;;;;;;5411970;26;20499;-26
2024/04/19 09:29:43;;;;;;;1.50;0.70;;;23.10;85.20;;;;;;5418405;26;21214;-26
2024/04/19 09:32:18;;;;;;;0.90;0.70;;;23.30;85.60;;;;;;5407032;26;20618;-27
2024/04/19 09:34:52;;;;;;;0.90;0.70;;;23.40;85.90;;;;;;5414375;26;20455;-25
2024/04/19 09:37:33;;;;;;;1.10;0.70;;;23.30;85.90;;;;;;5414759;26;20468;-25
2024/04/19 09:40:06;;;;;;;0.80;0.60;;;23.30;85.70;;;;;;5414047;26;20612;-26
2024/04/19 09:42:35;;;;;;;0.90;0.70;;;23.60;86.20;;;;;;5418387;26;20459;-25
2024/04/19 09:45:10;;;;;;;0.90;0.60;;;23.30;86.40;;;;;;5421964;26;20549;-28
2024/04/19 09:47:44;;;;;;;0.93;0.60;;;23.20;85.90;;;;;;5401905;26;20518;-25
2024/04/19 09:50:14;;;;;;;0.90;0.70;;;23.20;86.00;;;;;;5410362;26;20908;-26
2024/04/19 09:52:49;;;;;;;0.80;0.60;;;23.20;86.00;;;;;;5401636;26;20615;-26
2024/04/19 09:55:37;;;;;;;0.97;0.60;;;23.30;86.20;;;;;;5416125;26;20471;-26
2024/04/19 09:58:08;;;;;;;1.03;0.63;;;23.80;86.80;;;;;;5407559;26;21654;-27
2024/04/19 10:00:44;;;;;;;0.90;0.60;;;23.40;86.30;;;;;;5433114;26;20483;-26
2024/04/19 10:03:18;;;;;;;0.90;0.70;;;23.50;86.50;;;;;;5425182;26;20893;-28
2024/04/19 10:05:48;;;;;;;1.30;0.70;;;23.90;87.70;;;;;;5429549;26;20517;-26
2024/04/19 10:08:31;;;;;;;1.07;0.63;;;24.20;87.10;;;;;;5406807;26;20469;-27
2024/04/19 10:11:02;;;;;;;0.80;0.53;;;23.40;86.30;;;;;;5445433;26;21143;-25
2024/04/19 10:13:32;;;;;;;0.90;0.60;;;24.00;87.70;;;;;;5436876;26;20820;-29
2024/04/19 10:16:02;;;;;;;1.10;0.80;;;24.00;86.90;;;;;;5430874;26;20479;-26
2024/04/19 10:18:35;;;;;;;0.90;0.60;;;24.00;86.90;;;;;;5408601;26;20487;-26
2024/04/19 10:21:07;;;;;;;0.90;0.60;;;23.70;86.40;;;;;;5435151;26;20625;-28
2024/04/19 10:23:42;;;;;;;2.00;0.70;;;23.90;86.80;;;;;;5430011;26;20861;-24
2024/04/19 10:26:11;;;;;;;1.33;0.60;;;23.60;86.10;;;;;;5416171;26;20958;-25
2024/04/19 10:28:41;;;;;;;0.90;0.60;;;23.50;86.20;;;;;;5433406;26;20465;-26
2024/04/19 10:31:15;;;;;;;0.90;0.60;;;23.70;86.00;;;;;;5421775;26;22553;-25
2024/04/19 10:34:06;;;;;;;0.90;0.60;;;24.00;86.00;;;;;;5442069;26;20939;-27
2024/04/19 10:36:42;;;;;;;0.90;0.60;;;23.70;85.70;;;;;;5427839;26;20467;-27
2024/04/19 10:39:19;;;;;;;0.90;0.67;;;23.70;85.60;;;;;;5437244;26;20641;-25
2024/04/19 10:41:52;;;;;;;0.93;0.70;;;24.20;86.60;;;;;;5423365;26;20483;-25
2024/04/19 10:44:24;;;;;;;1.00;0.70;;;24.20;86.30;;;;;;5433558;26;20455;-27
2024/04/19 10:46:55;;;;;;;1.00;0.73;;;23.80;85.60;;;;;;5432842;26;20455;-26
2024/04/19 10:49:34;;;;;;;0.87;0.60;;;24.00;85.80;;;;;;5433152;26;21047;-25
2024/04/19 10:52:02;;;;;;;1.10;0.70;;;24.50;86.20;;;;;;5415306;26;20459;-24
2024/04/19 10:54:46;;;;;;;0.90;0.60;;;23.80;86.30;;;;;;5440435;26;20479;-26
2024/04/19 10:57:18;;;;;;;1.00;0.63;;;23.90;85.70;;;;;;5424801;26;20577;-28
2024/04/19 10:59:47;;;;;;;1.20;0.80;;;23.90;85.70;;;;;;5411473;26;20484;-25
2024/04/19 11:02:18;;;;;;;0.90;0.60;;;24.30;85.90;;;;;;5423286;26;20590;-28
2024/04/19 11:04:49;;;;;;;1.00;0.60;;;24.00;85.40;;;;;;5429149;26;21320;-26
2024/04/19 11:07:18;;;;;;;0.90;0.60;;;24.50;86.20;;;;;;5431248;26;20922;-27
2024/04/19 11:09:56;;;;;;;1.20;0.60;;;24.00;86.40;;;;;;5428612;26;20453;-24
2024/04/19 11:12:25;;;;;;;1.37;0.60;;;24.00;85.40;;;;;;5425692;26;21288;-24
2024/04/19 11:14:54;;;;;;;1.77;0.60;;;24.40;86.00;;;;;;5433048;26;20491;-28
2024/04/19 11:17:22;;;;;;;0.90;0.60;;;23.90;85.20;;;;;;5414014;26;20525;-26
2024/04/19 11:19:52;;;;;;;1.10;0.60;;;24.20;85.50;;;;;;5431608;26;20550;-27
2024/04/19 11:22:23;;;;;;;0.90;0.63;;;24.40;85.40;;;;;;5423396;26;21112;-27
2024/04/19 11:24:57;;;;;;;0.90;0.60;;;24.90;85.90;;;;;;5437102;26;21072;-25
2024/04/19 11:27:27;;;;;;;1.03;0.60;;;24.30;85.30;;;;;;5433069;26;20581;-26
2024/04/19 11:29:57;;;;;;;1.67;0.70;;;24.40;85.20;;;;;;5430665;26;20480;-26
2024/04/19 11:32:40;;;;;;;1.00;0.60;;;24.80;85.60;;;;;;5407926;26;21111;-25
2024/04/19 11:35:22;;;;;;;0.90;0.60;;;24.20;84.90;;;;;;5424619;26;20503;-28
2024/04/19 11:37:56;;;;;;;0.90;0.60;;;24.20;84.80;;;;;;5421996;26;20561;-24
2024/04/19 11:40:29;;;;;;;0.90;0.60;;;24.60;85.20;;;;;;5433396;26;20614;-26
2024/04/19 11:42:57;;;;;;;0.80;0.50;;;24.60;85.10;;;;;;5434183;26;20757;-28
2024/04/19 11:45:28;;;;;;;0.90;0.70;;;24.60;85.10;;;;;;5431933;26;20475;-24
2024/04/19 11:48:02;;;;;;;0.90;0.60;;;24.70;85.20;;;;;;5432204;26;21039;-26
2024/04/19 11:50:31;;;;;;;1.00;0.70;;;24.40;84.60;;;;;;5438847;26;20471;-26
2024/04/19 11:53:01;;;;;;;0.90;0.63;;;24.60;84.80;;;;;;5437158;26;20479;-25
2024/04/19 11:55:33;;;;;;;1.00;0.70;;;24.60;84.80;;;;;;5435133;26;20877;-26
2024/04/19 11:58:07;;;;;;;0.90;0.70;;;24.50;84.60;;;;;;5433589;26;20471;-26
2024/04/19 12:00:35;;;;;;;1.00;0.60;;;24.80;85.10;;;;;;5428226;26;20592;-25
2024/04/19 12:03:05;;;;;;;1.00;0.67;;;25.00;85.10;;;;;;5427190;26;20463;-25
2024/04/19 12:05:36;;;;;;;1.10;0.70;;;25.20;85.20;;;;;;5441180;26;21022;-25
2024/04/19 12:08:08;;;;;;;1.30;0.70;;;24.60;84.30;;;;;;5438903;26;20509;-26
2024/04/19 12:10:43;;;;;;;0.80;0.60;;;25.00;84.80;;;;;;5431485;26;20538;-25
2024/04/19 12:13:11;;;;;;;0.97;0.70;;;24.70;84.60;;;;;;5416951;26;20626;-26
2024/04/19 12:15:39;;;;;;;1.67;0.80;;;24.90;84.70;;;;;;5428737;26;20524;-25
2024/04/19 12:18:08;;;;;;;0.90;0.60;;;24.60;84.40;;;;;;5440509;26;20707;-26
2024/04/19 12:20:37;;;;;;;0.90;0.60;;;24.70;84.20;;;;;;5397682;26;21110;-25
2024/04/19 12:23:14;;;;;;;1.10;0.70;;;24.50;84.10;;;;;;5429859;26;20582;-26
2024/04/19 12:26:06;;;;;;;1.80;0.50;;;24.80;84.40;;;;;;5433739;26;20588;-27
2024/04/19 12:28:37;;;;;;;0.90;0.60;;;24.60;84.10;;;;;;5428613;26;20561;-24
2024/04/19 12:31:10;;;;;;;0.80;0.60;;;24.40;83.90;;;;;;5434659;26;20479;-27
2024/04/19 12:33:41;;;;;;;0.90;0.60;;;24.80;84.60;;;;;;5438790;26;20479;-26
2024/04/19 12:36:13;;;;;;;1.20;0.70;;;25.00;84.60;;;;;;5422990;26;21418;-25
2024/04/19 12:38:44;;;;;;;1.00;0.60;;;24.80;84.30;;;;;;5429031;26;21000;-26
2024/04/19 12:41:20;;;;;;;0.90;0.60;;;24.40;83.90;;;;;;5425794;26;20464;-24
2024/04/19 12:43:52;;;;;;;1.77;0.63;;;24.50;83.90;;;;;;5429194;26;20523;-24
2024/04/19 12:46:22;;;;;;;1.83;1.00;;;24.90;84.50;;;;;;5422387;26;20529;-25
2024/04/19 12:49:01;;;;;;;0.90;0.60;;;24.30;83.70;;;;;;5435754;26;21106;-26
2024/04/19 12:51:33;;;;;;;1.00;0.70;;;23.80;78.70;;;;;;5414191;26;20464;-25
2024/04/19 12:54:11;;;;;;;1.00;0.67;;;23.40;56.10;;;;;;5429593;26;20468;-24
2024/04/19 12:56:47;;;;;;;1.10;0.80;;;22.00;55.70;;;;;;5430197;26;20580;-25
2024/04/19 12:59:18;;;;;;;1.00;0.70;;;22.30;57.10;;;;;;5431555;26;20513;-26
2024/04/19 13:02:01;;;;;;;1.17;0.80;;;23.00;59.60;;;;;;5436227;26;20580;-25
2024/04/19 13:04:31;;;;;;;1.20;0.60;;;23.40;60.70;;;;;;5441020;26;20581;-26
2024/04/19 13:07:02;;;;;;;1.10;0.60;;;23.60;61.00;;;;;;5431731;26;21333;-27
2024/04/19 13:09:33;;;;;;;2.17;0.67;;;23.80;61.10;;;;;;5416376;26;20470;-28
2024/04/19 13:12:07;;;;;;;0.90;0.60;;;23.90;61.20;;;;;;5436361;26;21197;-22
2024/04/19 13:14:39;;;;;;;1.00;0.70;;;24.00;61.20;;;;;;5432111;26;20596;-25
2024/04/19 13:17:19;;;;;;;0.90;0.60;;;24.00;61.20;;;;;;5441123;26;21780;-25
2024/04/19 13:20:01;;;;;;;1.23;0.63;;;24.10;61.10;;;;;;5427931;26;20463;-24
2024/04/19 13:22:36;;;;;;;0.90;0.60;;;24.20;61.20;;;;;;5440415;26;21140;-25
2024/04/19 13:25:06;;;;;;;0.90;0.60;;;24.20;61.20;;;;;;5430019;26;20585;-27